Time;durP1;ratioP1;P1;durP2;ratioP2;P2;SDS_P1;SDS_P2;PMS_P1;PMS_P2;Temp;Humidity;BMP_temperature;BMP_pressure;BME280_temperature;BME280_humidity;BME280_pressure;Samples;Min_cycle;Max_cycle;Signal;HPM_P1;HPM_P2
2023/01/05 00:01:16;;;;;;;0.05;0.00;;;;;;;;;;5114834;28;20035;-59
2023/01/05 00:03:42;;;;;;;0.82;0.25;;;;;;;;;;5116019;28;20028;-57
2023/01/05 00:06:12;;;;;;;0.10;0.08;;;;;;;;;;5114978;28;20354;-58
2023/01/05 00:08:39;;;;;;;0.45;0.20;;;;;;;;;;5115179;28;20028;-57
2023/01/05 00:22:29;;;;;;;0.38;0.10;;;;;;;;;;5114909;28;20034;-58
2023/01/05 00:24:56;;;;;;;0.20;0.10;;;;;;;;;;5115098;28;20024;-58
2023/01/05 00:27:22;;;;;;;0.28;0.10;;;;;;;;;;5114308;28;20031;-57
2023/01/05 00:29:47;;;;;;;0.10;0.10;;;;;;;;;;5114240;28;20024;-58
2023/01/05 00:32:13;;;;;;;1.67;0.43;;;;;;;;;;5114333;28;20054;-56
2023/01/05 00:34:39;;;;;;;0.35;0.10;;;;;;;;;;5115428;28;20064;-57
2023/01/05 00:37:05;;;;;;;0.47;0.17;;;;;;;;;;5114736;28;20102;-57
2023/01/05 00:39:31;;;;;;;0.13;0.10;;;;;;;;;;5114487;28;20015;-55
2023/01/05 00:41:58;;;;;;;0.55;0.10;;;;;;;;;;5114518;28;20024;-56
2023/01/05 00:44:24;;;;;;;0.13;0.03;;;;;;;;;;5115103;28;20031;-55
2023/01/05 00:46:49;;;;;;;0.47;0.10;;;;;;;;;;5114506;28;20106;-58
2023/01/05 00:49:15;;;;;;;0.10;0.10;;;;;;;;;;5114754;28;20032;-58
2023/01/05 00:51:41;;;;;;;0.28;0.10;;;;;;;;;;5114869;28;20067;-58
2023/01/05 00:54:08;;;;;;;0.52;0.20;;;;;;;;;;5114184;28;20469;-59
2023/01/05 00:56:34;;;;;;;0.55;0.20;;;;;;;;;;5114268;28;20108;-57
2023/01/05 00:58:59;;;;;;;0.35;0.17;;;;;;;;;;5114339;28;20066;-59
2023/01/05 01:01:25;;;;;;;0.38;0.20;;;;;;;;;;5113936;28;20020;-57
2023/01/05 01:03:51;;;;;;;0.60;0.25;;;;;;;;;;5114045;28;20032;-58
2023/01/05 01:06:17;;;;;;;0.10;0.10;;;;;;;;;;5115326;28;20027;-57
2023/01/05 01:08:43;;;;;;;0.00;0.00;;;;;;;;;;5113871;28;20388;-56
2023/01/05 01:11:10;;;;;;;0.98;0.17;;;;;;;;;;5114806;28;20114;-57
2023/01/05 01:13:37;;;;;;;0.17;0.05;;;;;;;;;;5114205;28;20016;-58
2023/01/05 01:16:11;;;;;;;0.00;0.00;;;;;;;;;;5114767;28;20036;-57
2023/01/05 01:18:37;;;;;;;0.20;0.10;;;;;;;;;;5114296;28;20334;-58
2023/01/05 01:21:03;;;;;;;0.20;0.10;;;;;;;;;;5114819;28;20028;-55
2023/01/05 01:23:29;;;;;;;0.28;0.10;;;;;;;;;;5113838;28;20024;-55
2023/01/05 01:25:56;;;;;;;0.15;0.10;;;;;;;;;;5114642;28;20023;-56
2023/01/05 01:28:22;;;;;;;0.82;0.40;;;;;;;;;;5114027;28;20476;-57
2023/01/05 01:30:49;;;;;;;0.75;0.17;;;;;;;;;;5114301;28;20028;-56
2023/01/05 01:33:15;;;;;;;0.00;0.00;;;;;;;;;;5114016;28;20024;-57
2023/01/05 01:35:41;;;;;;;0.20;0.10;;;;;;;;;;5114669;28;20034;-58
2023/01/05 01:38:07;;;;;;;0.13;0.05;;;;;;;;;;5114130;28;20368;-58
2023/01/05 01:40:40;;;;;;;0.40;0.10;;;;;;;;;;5117751;28;20432;-59
2023/01/05 01:43:13;;;;;;;0.22;0.10;;;;;;;;;;5118037;28;20432;-58
2023/01/05 01:45:39;;;;;;;0.00;0.00;;;;;;;;;;5117298;28;20036;-58
2023/01/05 01:48:05;;;;;;;0.50;0.20;;;;;;;;;;5118398;28;20030;-58
2023/01/05 01:50:34;;;;;;;0.03;0.00;;;;;;;;;;5117913;28;20027;-58
2023/01/05 01:53:05;;;;;;;0.00;0.00;;;;;;;;;;5118111;28;20403;-58
2023/01/05 01:55:32;;;;;;;0.20;0.10;;;;;;;;;;5118409;28;20346;-56
2023/01/05 01:57:59;;;;;;;0.35;0.20;;;;;;;;;;5117899;28;20027;-58
2023/01/05 02:00:25;;;;;;;0.03;0.00;;;;;;;;;;5117357;28;20358;-58
2023/01/05 02:02:53;;;;;;;0.03;0.03;;;;;;;;;;5117773;28;20055;-58
2023/01/05 02:05:21;;;;;;;0.00;0.00;;;;;;;;;;5117688;28;20059;-58
2023/01/05 02:07:47;;;;;;;0.10;0.03;;;;;;;;;;5117494;28;20042;-58
2023/01/05 02:10:15;;;;;;;0.00;0.00;;;;;;;;;;5117551;28;20100;-58
2023/01/05 02:12:58;;;;;;;0.17;0.17;;;;;;;;;;5117080;28;20373;-58
2023/01/05 02:15:30;;;;;;;1.10;0.10;;;;;;;;;;5117449;28;20110;-58
2023/01/05 02:18:14;;;;;;;0.20;0.10;;;;;;;;;;5117531;28;20031;-57
2023/01/05 02:20:47;;;;;;;0.08;0.00;;;;;;;;;;5117559;28;20023;-58
2023/01/05 02:23:31;;;;;;;0.22;0.10;;;;;;;;;;5117746;28;20035;-58
2023/01/05 02:26:19;;;;;;;0.00;0.00;;;;;;;;;;5117553;28;20103;-57
2023/01/05 02:28:45;;;;;;;0.00;0.00;;;;;;;;;;5117132;28;20039;-58
2023/01/05 02:31:28;;;;;;;0.00;0.00;;;;;;;;;;5116730;28;20024;-58
2023/01/05 02:34:20;;;;;;;0.00;0.00;;;;;;;;;;5117311;28;20028;-57
2023/01/05 02:36:48;;;;;;;0.17;0.10;;;;;;;;;;5117291;28;20024;-57
2023/01/05 02:39:18;;;;;;;0.38;0.10;;;;;;;;;;5116814;28;20039;-56
2023/01/05 02:41:49;;;;;;;0.05;0.05;;;;;;;;;;5116875;28;20491;-58
2023/01/05 02:44:17;;;;;;;1.30;0.50;;;;;;;;;;5117156;28;20023;-58
2023/01/05 02:46:43;;;;;;;1.13;0.50;;;;;;;;;;5117264;28;20080;-58
2023/01/05 02:49:09;;;;;;;0.45;0.22;;;;;;;;;;5116645;28;20520;-58
2023/01/05 02:51:43;;;;;;;0.00;0.00;;;;;;;;;;5115805;28;20122;-58
2023/01/05 02:54:19;;;;;;;0.00;0.00;;;;;;;;;;5116909;28;20145;-58
2023/01/05 02:57:00;;;;;;;0.00;0.00;;;;;;;;;;5117201;28;20030;-57
2023/01/05 02:59:38;;;;;;;0.30;0.10;;;;;;;;;;5116481;28;20550;-58
2023/01/05 03:02:06;;;;;;;0.08;0.00;;;;;;;;;;5116476;28;20044;-58
2023/01/05 03:04:39;;;;;;;0.00;0.00;;;;;;;;;;5116986;28;20368;-58
2023/01/05 03:07:11;;;;;;;0.20;0.10;;;;;;;;;;5116722;28;20039;-58
2023/01/05 03:09:38;;;;;;;0.28;0.10;;;;;;;;;;5116311;28;20062;-58
2023/01/05 03:14:51;;;;;;;1.55;0.20;;;;;;;;;;5116048;28;20046;-58
2023/01/05 03:17:21;;;;;;;0.17;0.08;;;;;;;;;;5115952;28;20110;-58
2023/01/05 03:19:48;;;;;;;0.10;0.05;;;;;;;;;;5115883;28;20110;-58
2023/01/05 03:36:27;;;;;;;0.10;0.10;;;;;;;;;;5115921;28;20080;-58
2023/01/05 03:38:54;;;;;;;0.35;0.13;;;;;;;;;;5115650;28;20058;-58
2023/01/05 03:41:22;;;;;;;0.13;0.10;;;;;;;;;;5115682;28;20106;-58
2023/01/05 03:43:49;;;;;;;0.20;0.08;;;;;;;;;;5116394;28;20027;-58
2023/01/05 03:46:17;;;;;;;0.22;0.10;;;;;;;;;;5115696;28;20020;-58
2023/01/05 03:48:43;;;;;;;0.20;0.10;;;;;;;;;;5115611;28;20081;-58
2023/01/05 03:51:09;;;;;;;0.22;0.10;;;;;;;;;;5115520;28;20035;-58
2023/01/05 03:53:35;;;;;;;0.10;0.00;;;;;;;;;;5115465;28;20027;-57
2023/01/05 03:56:01;;;;;;;0.10;0.10;;;;;;;;;;5116031;28;20027;-57
2023/01/05 03:58:27;;;;;;;0.22;0.10;;;;;;;;;;5115577;28;20028;-57
2023/01/05 04:00:53;;;;;;;0.25;0.10;;;;;;;;;;5114939;28;20035;-58
2023/01/05 04:03:19;;;;;;;0.90;0.30;;;;;;;;;;5116086;28;20044;-58
2023/01/05 04:05:45;;;;;;;2.20;0.98;;;;;;;;;;5115813;28;20114;-59
2023/01/05 04:08:11;;;;;;;0.90;0.50;;;;;;;;;;5115463;28;20062;-58
2023/01/05 04:10:37;;;;;;;1.02;0.45;;;;;;;;;;5115076;28;20032;-58
2023/01/05 04:13:03;;;;;;;0.98;0.57;;;;;;;;;;5115664;28;20024;-58
2023/01/05 04:15:29;;;;;;;1.23;0.68;;;;;;;;;;5115122;28;20449;-58
2023/01/05 04:17:54;;;;;;;1.38;0.50;;;;;;;;;;5114877;28;20035;-59
2023/01/05 04:20:20;;;;;;;1.73;0.70;;;;;;;;;;5115526;28;20024;-58
2023/01/05 04:22:46;;;;;;;1.48;0.50;;;;;;;;;;5115397;28;20023;-58
2023/01/05 04:25:12;;;;;;;0.17;0.10;;;;;;;;;;5114900;28;20027;-57
2023/01/05 04:27:38;;;;;;;0.55;0.20;;;;;;;;;;5115096;28;20035;-58
2023/01/05 04:30:05;;;;;;;4.35;0.40;;;;;;;;;;5114502;28;20023;-58
2023/01/05 04:32:31;;;;;;;0.57;0.40;;;;;;;;;;5115063;28;20028;-58
2023/01/05 04:34:57;;;;;;;0.52;0.20;;;;;;;;;;5115115;28;20026;-59
2023/01/05 04:37:23;;;;;;;0.15;0.05;;;;;;;;;;5114678;28;20026;-58
2023/01/05 04:39:48;;;;;;;0.05;0.00;;;;;;;;;;5114933;28;20039;-58
2023/01/05 04:42:14;;;;;;;0.38;0.10;;;;;;;;;;5114601;28;20056;-57
2023/01/05 04:44:40;;;;;;;1.40;0.20;;;;;;;;;;5114615;28;20019;-58
2023/01/05 04:47:06;;;;;;;0.20;0.10;;;;;;;;;;5114875;28;20034;-58
2023/01/05 04:49:32;;;;;;;0.00;0.00;;;;;;;;;;5114574;28;20427;-58
2023/01/05 04:51:58;;;;;;;0.00;0.00;;;;;;;;;;5115034;28;20050;-58
2023/01/05 04:54:24;;;;;;;1.95;0.13;;;;;;;;;;5115071;28;20034;-58
2023/01/05 04:56:50;;;;;;;0.10;0.00;;;;;;;;;;5114415;28;20094;-58
2023/01/05 04:59:16;;;;;;;0.20;0.20;;;;;;;;;;5114232;28;20082;-58
2023/01/05 05:01:42;;;;;;;0.00;0.00;;;;;;;;;;5114195;28;20058;-58
2023/01/05 05:04:08;;;;;;;0.10;0.00;;;;;;;;;;5115248;28;20031;-58
2023/01/05 05:06:34;;;;;;;0.00;0.00;;;;;;;;;;5114241;28;20031;-58
2023/01/05 05:09:00;;;;;;;0.90;0.13;;;;;;;;;;5114069;28;20027;-58
2023/01/05 05:11:26;;;;;;;0.17;0.00;;;;;;;;;;5114601;28;20369;-59
2023/01/05 05:13:52;;;;;;;0.88;0.22;;;;;;;;;;5115640;28;20035;-57
2023/01/05 05:16:18;;;;;;;0.05;0.05;;;;;;;;;;5120711;28;20054;-58
2023/01/05 05:18:44;;;;;;;0.10;0.00;;;;;;;;;;5121611;28;20088;-58
2023/01/05 05:21:10;;;;;;;0.10;0.00;;;;;;;;;;5121006;28;20516;-57
2023/01/05 05:23:36;;;;;;;0.10;0.00;;;;;;;;;;5120728;28;20081;-58
2023/01/05 05:26:02;;;;;;;0.17;0.10;;;;;;;;;;5121301;28;20020;-58
2023/01/05 05:28:28;;;;;;;0.00;0.00;;;;;;;;;;5121295;28;20035;-59
2023/01/05 05:30:55;;;;;;;0.10;0.00;;;;;;;;;;5121196;28;20027;-58
2023/01/05 05:33:21;;;;;;;0.10;0.00;;;;;;;;;;5120924;28;20490;-58
2023/01/05 05:35:47;;;;;;;0.00;0.00;;;;;;;;;;5120946;28;20047;-58
2023/01/05 05:38:13;;;;;;;0.00;0.00;;;;;;;;;;5120828;28;20085;-58
2023/01/05 05:40:39;;;;;;;0.98;0.28;;;;;;;;;;5121181;28;20031;-58
2023/01/05 05:43:05;;;;;;;0.00;0.00;;;;;;;;;;5120859;28;20393;-58
2023/01/05 05:45:31;;;;;;;0.68;0.30;;;;;;;;;;5121076;28;20047;-59
2023/01/05 05:47:57;;;;;;;0.10;0.03;;;;;;;;;;5120802;28;20027;-59
2023/01/05 05:50:23;;;;;;;0.00;0.00;;;;;;;;;;5121249;28;20034;-58
2023/01/05 05:52:49;;;;;;;0.10;0.00;;;;;;;;;;5121597;28;20426;-59
2023/01/05 05:55:15;;;;;;;0.00;0.00;;;;;;;;;;5120793;28;20076;-58
2023/01/05 05:57:41;;;;;;;0.75;0.10;;;;;;;;;;5120789;28;20034;-58
2023/01/05 06:00:07;;;;;;;0.00;0.00;;;;;;;;;;5120593;28;20423;-58
2023/01/05 06:02:33;;;;;;;0.17;0.00;;;;;;;;;;5120786;28;20055;-58
2023/01/05 06:04:59;;;;;;;0.43;0.00;;;;;;;;;;5121159;28;20019;-57
2023/01/05 06:07:25;;;;;;;0.20;0.05;;;;;;;;;;5120868;28;20027;-57
2023/01/05 06:09:51;;;;;;;0.13;0.03;;;;;;;;;;5120588;28;20024;-57
2023/01/05 06:12:17;;;;;;;0.20;0.10;;;;;;;;;;5121111;28;20108;-57
2023/01/05 06:14:43;;;;;;;0.43;0.20;;;;;;;;;;5121170;28;20024;-57
2023/01/05 06:17:09;;;;;;;2.08;0.25;;;;;;;;;;5120286;28;20125;-56
2023/01/05 06:19:35;;;;;;;0.22;0.10;;;;;;;;;;5120428;28;20023;-57
2023/01/05 06:22:01;;;;;;;0.00;0.00;;;;;;;;;;5120243;28;20070;-56
2023/01/05 06:24:27;;;;;;;0.00;0.00;;;;;;;;;;5120437;28;20420;-57
2023/01/05 06:26:53;;;;;;;0.10;0.00;;;;;;;;;;5098747;28;20035;-56
2023/01/05 06:29:19;;;;;;;0.20;0.10;;;;;;;;;;5117134;28;20118;-57
2023/01/05 06:31:45;;;;;;;0.25;0.10;;;;;;;;;;5117468;28;20027;-56
2023/01/05 06:34:10;;;;;;;0.00;0.00;;;;;;;;;;5117452;28;20092;-57
2023/01/05 06:36:36;;;;;;;0.15;0.00;;;;;;;;;;5117029;28;20028;-57
2023/01/05 06:39:02;;;;;;;0.20;0.10;;;;;;;;;;5116653;28;20032;-56
2023/01/05 06:41:29;;;;;;;0.00;0.00;;;;;;;;;;5117258;28;20038;-56
2023/01/05 06:43:55;;;;;;;0.40;0.20;;;;;;;;;;5116825;28;20076;-57
2023/01/05 06:46:21;;;;;;;0.80;0.28;;;;;;;;;;5117162;28;20024;-57
2023/01/05 06:48:47;;;;;;;0.20;0.08;;;;;;;;;;5117249;28;20024;-57
2023/01/05 06:51:13;;;;;;;0.30;0.10;;;;;;;;;;5116796;28;20035;-59
2023/01/05 06:53:39;;;;;;;0.20;0.13;;;;;;;;;;5116981;28;20030;-57
2023/01/05 06:56:05;;;;;;;0.20;0.10;;;;;;;;;;5117612;28;20034;-59
2023/01/05 06:58:31;;;;;;;0.25;0.10;;;;;;;;;;5116220;28;20031;-58
2023/01/05 07:00:57;;;;;;;1.85;0.40;;;;;;;;;;5116228;28;20024;-58
2023/01/05 07:03:23;;;;;;;1.40;1.00;;;;;;;;;;5115999;28;20070;-59
2023/01/05 07:05:49;;;;;;;1.65;0.68;;;;;;;;;;5117370;28;20077;-58
2023/01/05 07:08:15;;;;;;;0.30;0.10;;;;;;;;;;5117261;28;20032;-59
2023/01/05 07:10:41;;;;;;;7.03;1.15;;;;;;;;;;5116456;28;20020;-59
2023/01/05 07:13:07;;;;;;;2.38;0.70;;;;;;;;;;5116588;28;20058;-58
2023/01/05 07:15:33;;;;;;;1.70;0.55;;;;;;;;;;5116395;28;20028;-58
2023/01/05 07:17:59;;;;;;;1.13;0.50;;;;;;;;;;5115912;28;20172;-58
2023/01/05 07:20:25;;;;;;;1.38;0.30;;;;;;;;;;5116527;28;20028;-59
2023/01/05 07:22:51;;;;;;;0.57;0.22;;;;;;;;;;5115856;28;20015;-59
2023/01/05 07:25:17;;;;;;;1.17;0.47;;;;;;;;;;5098670;28;20044;-58
2023/01/05 07:27:43;;;;;;;2.08;0.80;;;;;;;;;;5115963;28;20480;-58
2023/01/05 07:30:09;;;;;;;4.13;0.35;;;;;;;;;;5116452;28;20028;-58
2023/01/05 07:32:35;;;;;;;2.00;0.55;;;;;;;;;;5116204;28;20020;-58
2023/01/05 07:35:01;;;;;;;1.20;0.60;;;;;;;;;;5116295;28;20024;-58
2023/01/05 07:37:27;;;;;;;1.00;0.60;;;;;;;;;;5115333;28;20350;-58
2023/01/05 07:39:53;;;;;;;0.98;0.47;;;;;;;;;;5115407;28;20032;-58
2023/01/05 07:42:19;;;;;;;2.67;0.20;;;;;;;;;;5116246;28;20119;-58
2023/01/05 07:44:45;;;;;;;0.68;0.30;;;;;;;;;;5116044;28;20024;-58
2023/01/05 07:47:11;;;;;;;3.92;0.90;;;;;;;;;;5115675;28;20039;-58
2023/01/05 07:49:37;;;;;;;1.33;0.57;;;;;;;;;;5115546;28;20031;-58
2023/01/05 07:52:03;;;;;;;0.77;0.50;;;;;;;;;;5115497;28;20028;-58
2023/01/05 07:54:29;;;;;;;2.38;0.80;;;;;;;;;;5115818;28;20369;-57
2023/01/05 07:56:55;;;;;;;1.15;0.47;;;;;;;;;;5115454;28;20024;-57
2023/01/05 07:59:21;;;;;;;1.17;1.00;;;;;;;;;;5115238;28;20470;-58
2023/01/05 08:01:51;;;;;;;4.72;0.75;;;;;;;;;;5115043;28;20142;-59
2023/01/05 08:04:17;;;;;;;1.92;0.45;;;;;;;;;;5115394;28;20141;-59
2023/01/05 08:06:43;;;;;;;1.05;0.35;;;;;;;;;;5115280;28;20059;-59
2023/01/05 08:11:54;;;;;;;1.17;0.35;;;;;;;;;;5115236;28;20115;-56
2023/01/05 08:14:20;;;;;;;2.65;0.57;;;;;;;;;;5115232;28;20445;-57
2023/01/05 08:16:46;;;;;;;2.30;0.73;;;;;;;;;;5115221;28;20030;-55
2023/01/05 08:19:12;;;;;;;1.42;0.47;;;;;;;;;;5114868;28;20457;-58
2023/01/05 08:21:38;;;;;;;0.82;0.40;;;;;;;;;;5114906;28;20033;-58
2023/01/05 08:24:05;;;;;;;0.88;0.35;;;;;;;;;;5115695;28;20032;-57
2023/01/05 08:26:30;;;;;;;1.42;0.70;;;;;;;;;;5114866;28;20053;-58
2023/01/05 08:28:56;;;;;;;1.73;0.60;;;;;;;;;;5115106;28;20027;-58
2023/01/05 08:31:24;;;;;;;4.45;0.70;;;;;;;;;;5115116;28;20023;-58
2023/01/05 08:33:50;;;;;;;1.20;0.63;;;;;;;;;;5114571;28;20032;-57
2023/01/05 08:36:21;;;;;;;2.10;0.73;;;;;;;;;;5114776;28;20076;-58
2023/01/05 08:38:47;;;;;;;1.85;0.73;;;;;;;;;;5114685;28;20034;-57
2023/01/05 08:41:20;;;;;;;3.75;0.88;;;;;;;;;;5114871;28;20065;-58
2023/01/05 08:43:50;;;;;;;1.02;0.52;;;;;;;;;;5114652;28;20036;-57
2023/01/05 08:46:16;;;;;;;2.58;0.75;;;;;;;;;;5114931;28;20092;-58
2023/01/05 08:48:42;;;;;;;2.50;0.70;;;;;;;;;;5114157;28;20030;-57
2023/01/05 08:51:08;;;;;;;2.28;0.68;;;;;;;;;;5114730;28;20019;-58
2023/01/05 08:53:34;;;;;;;6.05;1.45;;;;;;;;;;5115178;28;20023;-57
2023/01/05 08:56:01;;;;;;;5.30;0.75;;;;;;;;;;5115051;28;20037;-57
2023/01/05 08:58:27;;;;;;;5.45;1.10;;;;;;;;;;5115040;28;20031;-55
2023/01/05 09:00:53;;;;;;;7.10;1.38;;;;;;;;;;5114279;28;20036;-57
2023/01/05 09:03:19;;;;;;;4.07;0.55;;;;;;;;;;5115114;28;20044;-57
2023/01/05 09:05:45;;;;;;;3.78;1.30;;;;;;;;;;5114970;28;20076;-57
2023/01/05 09:08:11;;;;;;;3.72;1.23;;;;;;;;;;5114590;28;20035;-58
2023/01/05 09:10:37;;;;;;;2.13;1.38;;;;;;;;;;5114310;28;20369;-57
2023/01/05 09:13:03;;;;;;;3.97;0.98;;;;;;;;;;5114261;28;20028;-58
2023/01/05 09:15:29;;;;;;;2.83;0.85;;;;;;;;;;5114830;28;20051;-58
2023/01/05 09:17:55;;;;;;;8.15;1.75;;;;;;;;;;5114369;28;20038;-58
2023/01/05 09:20:21;;;;;;;8.13;1.10;;;;;;;;;;5114160;28;20035;-58
2023/01/05 09:22:47;;;;;;;1.88;1.02;;;;;;;;;;5114644;28;20030;-56
2023/01/05 09:25:13;;;;;;;3.10;1.67;;;;;;;;;;5114485;28;20102;-58
2023/01/05 09:27:40;;;;;;;2.72;0.80;;;;;;;;;;5113951;28;20024;-58
2023/01/05 09:30:06;;;;;;;5.15;1.35;;;;;;;;;;5114315;28;20449;-58
2023/01/05 09:32:32;;;;;;;1.42;0.75;;;;;;;;;;5114918;28;20077;-59
2023/01/05 09:34:58;;;;;;;6.65;1.25;;;;;;;;;;5114412;28;20032;-58
2023/01/05 09:37:24;;;;;;;5.60;2.42;;;;;;;;;;5113869;28;20089;-58
2023/01/05 09:39:50;;;;;;;2.97;1.30;;;;;;;;;;5113979;28;20032;-58
2023/01/05 09:42:20;;;;;;;4.75;0.82;;;;;;;;;;5114225;28;20039;-58
2023/01/05 09:44:48;;;;;;;11.27;2.35;;;;;;;;;;5114686;28;20078;-58
2023/01/05 09:47:17;;;;;;;5.20;2.00;;;;;;;;;;5114276;28;20072;-58
2023/01/05 09:49:44;;;;;;;6.85;1.33;;;;;;;;;;5113816;28;20042;-57
2023/01/05 09:52:12;;;;;;;5.47;1.20;;;;;;;;;;5114032;28;20020;-58
2023/01/05 09:54:38;;;;;;;2.95;0.85;;;;;;;;;;5113972;28;20023;-58
2023/01/05 09:57:05;;;;;;;3.92;1.48;;;;;;;;;;5113520;28;20027;-58
2023/01/05 09:59:33;;;;;;;3.22;1.90;;;;;;;;;;5114059;28;20113;-58
2023/01/05 10:02:00;;;;;;;5.18;1.40;;;;;;;;;;5117349;28;20139;-58
2023/01/05 10:04:29;;;;;;;5.95;1.88;;;;;;;;;;5118232;28;20027;-57
2023/01/05 10:07:15;;;;;;;2.80;1.15;;;;;;;;;;5117620;28;20019;-57
2023/01/05 10:09:41;;;;;;;8.10;1.58;;;;;;;;;;5118279;28;20076;-58
2023/01/05 10:15:10;;;;;;;4.53;1.77;;;;;;;;;;5117551;28;20058;-58
2023/01/05 10:17:38;;;;;;;1.63;0.80;;;;;;;;;;5117292;28;20484;-58
2023/01/05 10:20:13;;;;;;;3.95;0.85;;;;;;;;;;5117580;28;20453;-58
2023/01/05 10:22:44;;;;;;;5.10;1.27;;;;;;;;;;5117651;28;20047;-58
2023/01/05 10:25:16;;;;;;;4.47;1.23;;;;;;;;;;5117647;28;20128;-58
2023/01/05 10:27:54;;;;;;;6.05;1.58;;;;;;;;;;5116938;28;20115;-56
2023/01/05 10:30:40;;;;;;;4.85;0.98;;;;;;;;;;5117077;28;20027;-58
2023/01/05 10:33:14;;;;;;;4.15;1.27;;;;;;;;;;5088577;28;20465;-58
2023/01/05 10:35:54;;;;;;;4.88;1.27;;;;;;;;;;5117602;28;20059;-57
2023/01/05 10:38:32;;;;;;;7.85;1.73;;;;;;;;;;5116936;28;20028;-58
2023/01/05 10:41:10;;;;;;;8.25;1.95;;;;;;;;;;5117188;28;20034;-58
2023/01/05 10:43:41;;;;;;;3.50;1.42;;;;;;;;;;5116898;28;20047;-58
2023/01/05 10:46:11;;;;;;;7.60;2.22;;;;;;;;;;5116688;28;20547;-58
2023/01/05 10:48:37;;;;;;;4.15;1.17;;;;;;;;;;5116819;28;20034;-57
2023/01/05 10:51:04;;;;;;;4.10;1.23;;;;;;;;;;5116722;28;20031;-58
2023/01/05 10:53:30;;;;;;;4.65;1.00;;;;;;;;;;5116431;28;20035;-58
2023/01/05 10:55:56;;;;;;;4.57;1.42;;;;;;;;;;5117017;28;20030;-58
2023/01/05 10:58:22;;;;;;;5.60;1.30;;;;;;;;;;5116883;28;20368;-58
2023/01/05 11:00:48;;;;;;;3.25;1.02;;;;;;;;;;5116761;28;20054;-58
2023/01/05 11:03:16;;;;;;;2.45;1.08;;;;;;;;;;5116556;28;20086;-59
2023/01/05 11:05:44;;;;;;;6.70;1.02;;;;;;;;;;5117055;28;20373;-59
2023/01/05 11:08:21;;;;;;;2.00;0.98;;;;;;;;;;5116446;28;20035;-58
2023/01/05 11:10:51;;;;;;;3.67;0.95;;;;;;;;;;5116403;28;20023;-59
2023/01/05 11:13:36;;;;;;;4.07;2.40;;;;;;;;;;5115706;28;20089;-58
2023/01/05 11:16:22;;;;;;;5.82;2.47;;;;;;;;;;5116726;28;20035;-58
2023/01/05 11:19:11;;;;;;;3.92;1.02;;;;;;;;;;5116192;28;20031;-58
2023/01/05 11:21:40;;;;;;;4.40;0.95;;;;;;;;;;5115878;28;20558;-57
2023/01/05 11:24:24;;;;;;;5.97;2.33;;;;;;;;;;5116588;28;20027;-57
2023/01/05 11:26:54;;;;;;;10.50;1.75;;;;;;;;;;5115799;28;20035;-59
2023/01/05 11:29:20;;;;;;;6.03;1.88;;;;;;;;;;5116373;28;20039;-58
2023/01/05 11:31:52;;;;;;;4.13;1.45;;;;;;;;;;5115987;28;20020;-58
2023/01/05 11:34:20;;;;;;;10.57;1.70;;;;;;;;;;5116256;28;20030;-59
2023/01/05 11:36:54;;;;;;;5.85;1.55;;;;;;;;;;5115936;28;20085;-58
2023/01/05 11:39:25;;;;;;;9.05;1.33;;;;;;;;;;5115725;28;20032;-58
2023/01/05 11:41:51;;;;;;;3.88;1.35;;;;;;;;;;5115807;28;20032;-58
2023/01/05 11:44:22;;;;;;;7.57;1.30;;;;;;;;;;5116036;28;20019;-59
2023/01/05 11:46:48;;;;;;;6.95;1.08;;;;;;;;;;5115542;28;20053;-58
2023/01/05 11:49:18;;;;;;;5.28;0.95;;;;;;;;;;5115573;28;20032;-58
2023/01/05 11:51:44;;;;;;;5.03;1.77;;;;;;;;;;5115559;28;20019;-58
2023/01/05 11:54:28;;;;;;;6.50;1.83;;;;;;;;;;5115630;28;20034;-58
2023/01/05 11:57:14;;;;;;;7.60;1.98;;;;;;;;;;5115465;28;20020;-58
2023/01/05 11:59:40;;;;;;;4.03;1.05;;;;;;;;;;5115370;28;20118;-57
2023/01/05 12:02:19;;;;;;;4.22;1.33;;;;;;;;;;5115312;28;20139;-58
2023/01/05 12:05:03;;;;;;;7.90;1.80;;;;;;;;;;5115566;28;20084;-58
2023/01/05 12:07:29;;;;;;;6.72;1.70;;;;;;;;;;5115099;28;20030;-56
2023/01/05 12:10:14;;;;;;;16.02;3.05;;;;;;;;;;5115029;28;20065;-58
2023/01/05 12:12:39;;;;;;;4.80;1.02;;;;;;;;;;5115152;28;20035;-58
2023/01/05 12:15:12;;;;;;;4.63;1.83;;;;;;;;;;5115381;28;20020;-58
2023/01/05 12:17:49;;;;;;;7.68;1.88;;;;;;;;;;5115330;28;20028;-58
2023/01/05 12:20:18;;;;;;;5.53;2.10;;;;;;;;;;5115282;28;20524;-56
2023/01/05 12:23:08;;;;;;;6.75;1.13;;;;;;;;;;5114974;28;20019;-56
2023/01/05 12:25:40;;;;;;;4.97;2.33;;;;;;;;;;5114869;28;20097;-58
2023/01/05 12:28:06;;;;;;;11.88;1.30;;;;;;;;;;5114888;28;20346;-58
2023/01/05 12:30:52;;;;;;;1.58;0.75;;;;;;;;;;5114629;28;20027;-58
2023/01/05 12:33:21;;;;;;;5.72;1.45;;;;;;;;;;5114830;28;20020;-55
2023/01/05 12:36:06;;;;;;;3.83;1.15;;;;;;;;;;5114954;28;20024;-56
2023/01/05 12:38:52;;;;;;;5.30;1.02;;;;;;;;;;5114561;28;20031;-56
2023/01/05 12:41:41;;;;;;;8.52;1.52;;;;;;;;;;5114614;28;20453;-56
2023/01/05 12:44:26;;;;;;;3.33;0.88;;;;;;;;;;5115019;28;20039;-57
2023/01/05 12:46:58;;;;;;;2.40;1.50;;;;;;;;;;5114661;28;20028;-57
2023/01/05 12:49:26;;;;;;;4.40;2.30;;;;;;;;;;5114263;28;20456;-57
2023/01/05 12:51:56;;;;;;;3.03;1.70;;;;;;;;;;5114734;28;20028;-57
2023/01/05 12:54:28;;;;;;;2.97;1.33;;;;;;;;;;5115035;28;20049;-57
2023/01/05 12:56:57;;;;;;;4.00;1.30;;;;;;;;;;5114732;28;20019;-58
2023/01/05 12:59:27;;;;;;;8.27;1.42;;;;;;;;;;5114208;28;20050;-57
2023/01/05 13:02:02;;;;;;;5.47;1.23;;;;;;;;;;5114820;28;20108;-57
2023/01/05 13:04:34;;;;;;;8.48;1.80;;;;;;;;;;5114204;28;20023;-57
2023/01/05 13:07:02;;;;;;;3.20;1.38;;;;;;;;;;5114330;28;20030;-57
2023/01/05 13:09:30;;;;;;;2.33;1.25;;;;;;;;;;5114251;28;20042;-57
2023/01/05 13:12:03;;;;;;;3.80;1.05;;;;;;;;;;5114437;28;20089;-56
2023/01/05 13:14:32;;;;;;;6.15;0.82;;;;;;;;;;5114656;28;20096;-56
2023/01/05 13:17:03;;;;;;;7.65;1.40;;;;;;;;;;5114322;28;20028;-57
2023/01/05 13:19:42;;;;;;;5.05;1.65;;;;;;;;;;5114284;28;20072;-57
2023/01/05 13:22:18;;;;;;;10.27;1.70;;;;;;;;;;5114060;28;20050;-57
2023/01/05 13:24:49;;;;;;;3.72;1.52;;;;;;;;;;5113598;28;20446;-57
2023/01/05 13:27:16;;;;;;;3.72;1.10;;;;;;;;;;5114024;28;20034;-57
2023/01/05 13:29:44;;;;;;;6.15;1.70;;;;;;;;;;5114113;28;20032;-57
2023/01/05 13:32:10;;;;;;;7.47;1.42;;;;;;;;;;5114031;28;20531;-58
2023/01/05 13:34:36;;;;;;;8.15;1.38;;;;;;;;;;5114590;28;20020;-57
2023/01/05 13:37:05;;;;;;;12.00;2.33;;;;;;;;;;5117778;28;20027;-56
2023/01/05 13:39:37;;;;;;;8.27;1.17;;;;;;;;;;5118513;28;20031;-58
2023/01/05 13:42:03;;;;;;;5.25;2.17;;;;;;;;;;5118483;28;20082;-59
2023/01/05 13:44:37;;;;;;;8.45;3.55;;;;;;;;;;5118300;28;20047;-58
2023/01/05 13:47:20;;;;;;;4.80;1.88;;;;;;;;;;5118301;28;20028;-58
2023/01/05 13:49:46;;;;;;;5.38;1.45;;;;;;;;;;5118514;28;20023;-58
2023/01/05 13:52:27;;;;;;;6.95;1.63;;;;;;;;;;5117570;28;20077;-59
2023/01/05 13:54:56;;;;;;;7.38;2.17;;;;;;;;;;5118293;28;20373;-58
2023/01/05 13:57:26;;;;;;;5.55;2.05;;;;;;;;;;5100273;28;20050;-56
2023/01/05 13:59:55;;;;;;;2.85;1.30;;;;;;;;;;5118077;28;20039;-58
2023/01/05 14:02:27;;;;;;;5.47;1.65;;;;;;;;;;5117562;28;20496;-57
2023/01/05 14:04:53;;;;;;;2.90;1.27;;;;;;;;;;5118102;28;20072;-57
2023/01/05 14:07:19;;;;;;;10.00;1.70;;;;;;;;;;5117633;28;20031;-58
2023/01/05 14:09:53;;;;;;;3.80;1.50;;;;;;;;;;5117999;28;20114;-58
2023/01/05 14:12:19;;;;;;;5.57;2.13;;;;;;;;;;5117472;28;20055;-57
2023/01/05 14:15:07;;;;;;;8.85;2.15;;;;;;;;;;5117971;28;20069;-57
2023/01/05 14:17:52;;;;;;;3.88;1.75;;;;;;;;;;5117160;28;20026;-58
2023/01/05 14:20:35;;;;;;;6.97;3.10;;;;;;;;;;5117422;28;20168;-58
2023/01/05 14:23:03;;;;;;;3.53;1.58;;;;;;;;;;5117174;28;20047;-58
2023/01/05 14:25:38;;;;;;;7.68;1.58;;;;;;;;;;5117839;28;20023;-57
2023/01/05 14:28:21;;;;;;;4.60;1.15;;;;;;;;;;5117631;28;20358;-58
2023/01/05 14:30:49;;;;;;;6.18;1.88;;;;;;;;;;5117325;28;20031;-57
2023/01/05 14:33:16;;;;;;;6.50;1.88;;;;;;;;;;5116894;28;20019;-57
2023/01/05 14:35:43;;;;;;;6.05;2.15;;;;;;;;;;5117441;28;20031;-58
2023/01/05 14:38:17;;;;;;;8.90;1.65;;;;;;;;;;5098403;28;20050;-57
2023/01/05 14:40:45;;;;;;;6.97;1.92;;;;;;;;;;5098786;28;20023;-58
2023/01/05 14:43:26;;;;;;;4.57;1.77;;;;;;;;;;5117095;28;20028;-57
2023/01/05 14:46:01;;;;;;;2.25;1.23;;;;;;;;;;5117600;28;20023;-58
2023/01/05 14:48:30;;;;;;;7.30;2.20;;;;;;;;;;5116281;28;20472;-58
2023/01/05 14:51:14;;;;;;;7.15;1.60;;;;;;;;;;5117377;28;20039;-57
2023/01/05 14:53:40;;;;;;;8.02;1.55;;;;;;;;;;5117209;28;20052;-56
2023/01/05 14:56:06;;;;;;;7.40;1.98;;;;;;;;;;5116926;28;20030;-56
2023/01/05 14:58:35;;;;;;;3.05;1.17;;;;;;;;;;5116446;28;20035;-56
2023/01/05 15:01:13;;;;;;;5.78;2.33;;;;;;;;;;5116453;28;20112;-57
2023/01/05 15:03:44;;;;;;;7.35;2.05;;;;;;;;;;5117449;28;20047;-57
2023/01/05 15:06:15;;;;;;;6.35;1.35;;;;;;;;;;5116820;28;20023;-56
2023/01/05 15:09:00;;;;;;;10.55;2.97;;;;;;;;;;5117055;28;20035;-57
2023/01/05 15:11:26;;;;;;;5.22;1.65;;;;;;;;;;5116401;28;20381;-59
2023/01/05 15:16:59;;;;;;;10.93;1.90;;;;;;;;;;5116132;28;20072;-58
2023/01/05 15:19:34;;;;;;;11.50;1.73;;;;;;;;;;5116520;28;20028;-56
2023/01/05 15:22:18;;;;;;;4.97;1.90;;;;;;;;;;5116408;28;20028;-58
2023/01/05 15:25:23;;;;;;;5.50;1.52;;;;;;;;;;5116131;28;20027;-58
2023/01/05 15:27:53;;;;;;;5.70;1.30;;;;;;;;;;5013651;28;20515;-58
2023/01/05 15:30:19;;;;;;;;;;;;;;;;;;5014316;28;20473;-57
2023/01/05 15:32:49;;;;;;;10.35;1.88;;;;;;;;;;5065144;28;20349;-56